createdAt,value
2022-12-23T00:02:05.119Z,100253.34
2022-12-23T00:04:32.153Z,100262.53
2022-12-23T00:06:59.081Z,100259.75
2022-12-23T00:09:25.935Z,100261.69
2022-12-23T00:11:55.948Z,100259.19
2022-12-23T00:14:25.859Z,100256.41
2022-12-23T00:16:52.978Z,100258.41
2022-12-23T00:19:19.862Z,100254.78
2022-12-23T00:21:48.847Z,100272.34
2022-12-23T00:24:15.889Z,100261.47
2022-12-23T00:26:42.765Z,100269.00
2022-12-23T00:29:09.737Z,100269.84
2022-12-23T00:31:36.617Z,100264.56
2022-12-23T00:34:03.541Z,100265.66
2022-12-23T00:36:31.079Z,100257.63
2022-12-23T00:39:02.260Z,100280.75
2022-12-23T00:41:32.223Z,100269.28
2022-12-23T00:43:59.147Z,100266.81
2022-12-23T00:46:26.189Z,100252.06
2022-12-23T00:48:56.328Z,100261.25
2022-12-23T00:51:23.216Z,100271.56
2022-12-23T00:53:50.067Z,100280.75
2022-12-23T00:56:17.004Z,100289.41
2022-12-23T00:58:43.870Z,100298.06
2022-12-23T01:01:13.853Z,100300.00
2022-12-23T01:03:43.828Z,100302.78
2022-12-23T01:06:10.741Z,100303.63
2022-12-23T01:08:38.095Z,100310.88
2022-12-23T01:11:06.425Z,100317.56
2022-12-23T01:13:33.532Z,100316.72
2022-12-23T01:16:01.904Z,100310.34
2022-12-23T01:18:28.747Z,100300.31
2022-12-23T01:20:55.652Z,100305.06
2022-12-23T01:23:22.596Z,100298.38
2022-12-23T01:25:56.598Z,100307.84
2022-12-23T01:28:23.781Z,100297.53
2022-12-23T01:30:50.640Z,100289.47
2022-12-23T01:33:17.544Z,100273.84
2022-12-23T01:35:44.528Z,100287.50
2022-12-23T01:38:11.400Z,100277.47
2022-12-23T01:40:40.354Z,100273.03
2022-12-23T01:43:07.178Z,100283.38
2022-12-23T01:45:34.206Z,100287.28
2022-12-23T01:48:05.472Z,100283.38
2022-12-23T01:50:32.829Z,100288.09
2022-12-23T01:53:06.497Z,100293.69
2022-12-23T01:55:37.777Z,100297.59
2022-12-23T01:58:09.389Z,100287.28
2022-12-23T02:00:39.600Z,100281.69
2022-12-23T02:03:09.671Z,100281.69
2022-12-23T02:05:36.827Z,100282.81
2022-12-23T02:08:06.823Z,100281.69
2022-12-23T02:10:41.301Z,100280.88
2022-12-23T02:13:11.175Z,100284.78
2022-12-23T02:15:44.423Z,100284.78
2022-12-23T02:18:22.900Z,100287.03
2022-12-23T02:20:52.924Z,100287.03
2022-12-23T02:23:22.853Z,100289.00
2022-12-23T02:25:52.664Z,100302.09
2022-12-23T02:28:30.339Z,100300.16
2022-12-23T02:31:01.971Z,100301.78
2022-12-23T02:33:29.142Z,100289.28
2022-12-23T02:36:03.449Z,100299.31
2022-12-23T02:38:34.664Z,100298.47
2022-12-23T02:41:04.587Z,100282.88
2022-12-23T02:43:34.494Z,100277.00
2022-12-23T02:46:07.830Z,100267.81
2022-12-23T02:48:35.217Z,100270.59
2022-12-23T02:51:02.677Z,100253.06
2022-12-23T02:53:32.525Z,100250.25
2022-12-23T02:56:00.511Z,100253.34
2022-12-23T02:58:30.343Z,100259.47
2022-12-23T03:00:58.359Z,100255.84
2022-12-23T03:03:26.548Z,100258.06
2022-12-23T03:05:54.173Z,100272.84
2022-12-23T03:08:24.264Z,100274.78
2022-12-23T03:10:57.463Z,100272.84
2022-12-23T03:13:30.931Z,100277.59
2022-12-23T03:16:06.403Z,100276.47
2022-12-23T03:18:33.650Z,100272.00
2022-12-23T03:21:03.714Z,100277.59
2022-12-23T03:23:32.836Z,100287.09
2022-12-23T03:26:00.048Z,100296.28
2022-12-23T03:28:31.950Z,100297.41
2022-12-23T03:31:00.151Z,100299.38
2022-12-23T03:33:30.164Z,100302.16
2022-12-23T03:36:00.364Z,100297.41
2022-12-23T03:38:28.467Z,100286.53
2022-12-23T03:40:58.551Z,100292.97
2022-12-23T03:43:28.983Z,100289.34
2022-12-23T03:45:59.618Z,100280.13
2022-12-23T03:48:30.477Z,100284.03
2022-12-23T03:51:00.433Z,100285.19
2022-12-23T03:53:30.722Z,100295.19
2022-12-23T03:56:01.283Z,100303.88
2022-12-23T03:58:28.436Z,100293.56
2022-12-23T04:01:00.276Z,100292.41
2022-12-23T04:03:27.586Z,100293.56
2022-12-23T04:05:58.059Z,100286.03
2022-12-23T04:08:27.734Z,100267.63
2022-12-23T04:10:54.667Z,100266.81
2022-12-23T04:13:21.547Z,100253.16
2022-12-23T04:15:48.494Z,100246.47
2022-12-23T04:18:16.751Z,100240.91
2022-12-23T04:20:43.673Z,100222.50
2022-12-23T04:23:10.507Z,100215.28
2022-12-23T04:25:38.135Z,100214.97
2022-12-23T04:28:05.237Z,100205.28
2022-12-23T04:30:34.598Z,100207.75
2022-12-23T04:33:02.241Z,100212.47
2022-12-23T04:35:29.712Z,100212.47
2022-12-23T04:37:56.677Z,100220.03
2022-12-23T04:40:23.527Z,100228.69
2022-12-23T04:42:50.438Z,100223.94
2022-12-23T04:45:17.311Z,100235.94
2022-12-23T04:47:44.155Z,100235.09
2022-12-23T04:50:14.358Z,100222.00
2022-12-23T04:52:41.458Z,100225.91
2022-12-23T04:55:08.575Z,100226.72
2022-12-23T04:57:35.485Z,100211.13
2022-12-23T05:00:02.353Z,100205.56
2022-12-23T05:02:29.330Z,100207.22
2022-12-23T05:04:56.201Z,100209.19
2022-12-23T05:07:23.004Z,100194.41
2022-12-23T05:09:49.872Z,100189.13
2022-12-23T05:12:16.740Z,100197.50
2022-12-23T05:14:43.706Z,100203.91
2022-12-23T05:17:10.590Z,100191.63
2022-12-23T05:19:37.415Z,100172.13
2022-12-23T05:22:04.257Z,100176.88
2022-12-23T05:24:31.149Z,100192.75
2022-12-23T05:27:00.444Z,100178.00
2022-12-23T05:29:27.844Z,100151.28
2022-12-23T05:31:54.799Z,100140.94
2022-12-23T05:34:22.024Z,100140.94
2022-12-23T05:36:48.900Z,100138.97
2022-12-23T05:39:15.888Z,100140.94
2022-12-23T05:41:42.908Z,100137.03
2022-12-23T05:44:09.950Z,100131.78
2022-12-23T05:46:36.858Z,100125.06
2022-12-23T05:49:03.735Z,100124.22
2022-12-23T05:51:30.661Z,100108.34
2022-12-23T05:53:57.802Z,100105.25
2022-12-23T05:56:24.658Z,100096.34
2022-12-23T05:58:51.509Z,100091.63
2022-12-23T06:01:18.748Z,100091.63
2022-12-23T06:03:45.665Z,100100.28
2022-12-23T06:06:12.571Z,100097.81
2022-12-23T06:08:39.458Z,100088.31
2022-12-23T06:11:06.602Z,100083.59
2022-12-23T06:13:33.442Z,100076.34
2022-12-23T06:16:00.368Z,100074.38
2022-12-23T06:18:27.320Z,100056.84
2022-12-23T06:20:54.260Z,100044.88
2022-12-23T06:23:21.195Z,100042.09
2022-12-23T06:25:48.012Z,100032.88
2022-12-23T06:28:15.010Z,100041.25
2022-12-23T06:30:41.872Z,100044.31
2022-12-23T06:33:08.731Z,100028.44
2022-12-23T06:35:35.560Z,100033.19
2022-12-23T06:38:03.320Z,100025.38
2022-12-23T06:40:31.541Z,100020.63
2022-12-23T06:42:58.352Z,100030.94
2022-12-23T06:45:25.252Z,100026.50
2022-12-23T06:47:52.134Z,100006.97
2022-12-23T06:50:19.013Z,100009.78
2022-12-23T06:52:46.340Z,99991.41
2022-12-23T06:55:13.229Z,99982.25
2022-12-23T06:57:40.120Z,99983.88
2022-12-23T07:00:07.544Z,99983.03
2022-12-23T07:02:34.581Z,99984.69
2022-12-23T07:05:01.863Z,99971.09
2022-12-23T07:07:28.974Z,99954.06
2022-12-23T07:09:55.863Z,99942.09
2022-12-23T07:12:22.734Z,99926.19
2022-12-23T07:14:49.555Z,99924.53
2022-12-23T07:17:16.468Z,99916.19
2022-12-23T07:19:43.309Z,99905.88
2022-12-23T07:22:10.595Z,99901.13
2022-12-23T07:24:37.961Z,99901.13
2022-12-23T07:27:04.850Z,99897.50
2022-12-23T07:29:31.858Z,99891.09
2022-12-23T07:31:58.942Z,99888.31
2022-12-23T07:34:25.943Z,99893.09
2022-12-23T07:36:53.001Z,99900.09
2022-12-23T07:39:20.041Z,99910.94
2022-12-23T07:41:46.957Z,99920.13
2022-12-23T07:44:14.191Z,99934.88
2022-12-23T07:46:41.123Z,99925.69
2022-12-23T07:49:08.142Z,99924.84
2022-12-23T07:51:34.997Z,99930.44
2022-12-23T07:54:02.040Z,99921.25
2022-12-23T07:56:28.986Z,99922.38
2022-12-23T07:58:56.003Z,99905.66
2022-12-23T08:01:23.028Z,99888.94
2022-12-23T08:03:49.977Z,99876.69
2022-12-23T08:06:17.077Z,99865.53
2022-12-23T08:08:45.895Z,99859.97
2022-12-23T08:11:13.547Z,99855.50
2022-12-23T08:13:41.685Z,99837.97
2022-12-23T08:16:08.886Z,99826.81
2022-12-23T08:18:37.146Z,99810.13
2022-12-23T08:21:06.018Z,99795.06
2022-12-23T08:23:33.525Z,99805.06
2022-12-23T08:26:03.656Z,99795.06
2022-12-23T08:28:31.246Z,99792.28
2022-12-23T08:31:01.277Z,99797.03
2022-12-23T08:33:28.130Z,99804.25
2022-12-23T08:35:55.225Z,99800.63
2022-12-23T08:38:22.346Z,99800.94
2022-12-23T08:40:49.408Z,99802.59
2022-12-23T08:43:16.431Z,99792.56
2022-12-23T08:45:43.337Z,99765.03
2022-12-23T08:48:10.199Z,99756.38
2022-12-23T08:50:39.451Z,99745.22
2022-12-23T08:53:06.518Z,99711.50
2022-12-23T08:55:36.690Z,99717.06
2022-12-23T08:58:03.636Z,99722.63
2022-12-23T09:00:30.511Z,99758.66
2022-12-23T09:02:57.834Z,99740.81
2022-12-23T09:05:24.829Z,99711.78
2022-12-23T09:07:51.864Z,99665.28
2022-12-23T09:10:18.822Z,99643.00
2022-12-23T09:12:45.710Z,99677.53
2022-12-23T09:15:12.681Z,99716.88
2022-12-23T09:17:39.523Z,99723.25
2022-12-23T09:20:07.154Z,99701.81
2022-12-23T09:22:34.347Z,99736.03
2022-12-23T09:25:05.298Z,99776.19
2022-12-23T09:27:32.510Z,99754.19
2022-12-23T09:29:59.487Z,99688.69
2022-12-23T09:32:26.536Z,99655.25
2022-12-23T09:34:53.596Z,99628.22
2022-12-23T09:37:20.602Z,99643.31
2022-12-23T09:39:47.547Z,99664.44
2022-12-23T09:42:17.471Z,99686.72
2022-12-23T09:44:47.743Z,99685.91
2022-12-23T09:47:18.390Z,99662.00
2022-12-23T09:49:47.795Z,99680.31
2022-12-23T09:52:18.830Z,99678.69
2022-12-23T09:54:48.985Z,99667.56
2022-12-23T09:57:16.273Z,99668.38
2022-12-23T09:59:43.445Z,99655.59
2022-12-23T10:02:13.626Z,99661.16
2022-12-23T10:04:41.089Z,99669.50
2022-12-23T10:07:16.607Z,99671.16
2022-12-23T10:09:45.863Z,99651.69
2022-12-23T10:12:15.890Z,99658.03
2022-12-23T10:14:44.101Z,99669.19
2022-12-23T10:17:16.577Z,99662.00
2022-12-23T10:19:45.789Z,99650.84
2022-12-23T10:22:17.152Z,99660.03
2022-12-23T10:24:45.954Z,99651.69
2022-12-23T10:27:13.270Z,99647.22
2022-12-23T10:29:41.076Z,99658.38
2022-12-23T10:32:11.508Z,99655.59
2022-12-23T10:34:44.327Z,99651.16
2022-12-23T10:37:18.162Z,99644.75
2022-12-23T10:39:53.408Z,99653.63
2022-12-23T10:42:21.740Z,99643.63
2022-12-23T10:44:54.405Z,99642.78
2022-12-23T10:47:31.972Z,99651.16
2022-12-23T10:50:02.033Z,99641.66
2022-12-23T10:52:30.479Z,99641.34
2022-12-23T10:54:57.389Z,99640.53
2022-12-23T10:57:25.208Z,99640.53
2022-12-23T10:59:52.363Z,99666.72
2022-12-23T11:02:22.551Z,99645.28
2022-12-23T11:04:50.120Z,99651.69
2022-12-23T11:07:43.315Z,99651.69
2022-12-23T11:10:13.586Z,99638.53
2022-12-23T11:12:42.955Z,99636.59
2022-12-23T11:15:12.926Z,99641.34
2022-12-23T11:17:39.816Z,99648.56
2022-12-23T11:20:09.817Z,99646.09
2022-12-23T11:22:46.521Z,99643.31
2022-12-23T11:25:25.900Z,99646.91
2022-12-23T11:27:56.850Z,99640.53
2022-12-23T11:30:24.046Z,99645.28
2022-12-23T11:32:51.722Z,99634.97
2022-12-23T11:35:24.936Z,99636.59
2022-12-23T11:37:52.200Z,99633.31
2022-12-23T11:40:22.350Z,99637.41
2022-12-23T11:42:53.576Z,99642.16
2022-12-23T11:45:25.050Z,99643.00
2022-12-23T11:47:52.422Z,99645.78
2022-12-23T11:50:19.735Z,99650.22
2022-12-23T11:52:49.923Z,99641.03
2022-12-23T11:55:24.677Z,99642.69
2022-12-23T11:57:51.966Z,99641.88
2022-12-23T12:00:22.351Z,99635.47
2022-12-23T12:02:53.043Z,99630.41
2022-12-23T12:05:23.310Z,99627.63
2022-12-23T12:07:51.798Z,99626.47
2022-12-23T12:10:22.556Z,99634.03
2022-12-23T12:12:54.831Z,99616.16
2022-12-23T12:15:25.187Z,99621.44
2022-12-23T12:17:52.998Z,99620.31
2022-12-23T12:20:21.397Z,99613.59
2022-12-23T12:22:50.537Z,99618.84
2022-12-23T12:25:19.765Z,99626.91
2022-12-23T12:27:49.938Z,99625.25
2022-12-23T12:30:19.613Z,99617.41
2022-12-23T12:32:47.488Z,99623.00
2022-12-23T12:35:18.427Z,99627.09
2022-12-23T12:37:45.905Z,99639.06
2022-12-23T12:40:15.980Z,99641.03
2022-12-23T12:42:44.699Z,99636.59
2022-12-23T12:45:14.760Z,99641.84
2022-12-23T12:47:53.918Z,99641.84
2022-12-23T12:50:25.560Z,99637.13
2022-12-23T12:52:55.551Z,99639.59
2022-12-23T12:55:26.527Z,99638.44
2022-12-23T12:57:53.481Z,99638.13
2022-12-23T13:00:21.799Z,99633.41
2022-12-23T13:02:52.618Z,99634.53
2022-12-23T13:05:22.676Z,99641.44
2022-12-23T13:07:52.726Z,99633.09
2022-12-23T13:10:30.006Z,99634.72
2022-12-23T13:13:03.687Z,99640.81
2022-12-23T13:15:36.503Z,99641.66
2022-12-23T13:18:11.725Z,99643.59
2022-12-23T13:20:41.804Z,99646.41
2022-12-23T13:23:41.564Z,99645.25
2022-12-23T13:26:03.139Z,99648.88
2022-12-23T13:28:31.538Z,99656.06
2022-12-23T13:31:07.327Z,99655.25
2022-12-23T13:33:37.382Z,99659.69
2022-12-23T13:36:12.293Z,99661.66
2022-12-23T13:38:50.113Z,99663.59
2022-12-23T13:41:17.411Z,99665.59
2022-12-23T13:43:47.865Z,99663.59
2022-12-23T13:46:18.232Z,99663.59
2022-12-23T13:48:53.908Z,99678.38
2022-12-23T13:51:26.979Z,99672.78
2022-12-23T13:53:56.975Z,99679.53
2022-12-23T13:56:31.201Z,99675.91
2022-12-23T13:58:58.848Z,99687.88
2022-12-23T14:01:28.813Z,99687.56
2022-12-23T14:03:56.000Z,99690.69
2022-12-23T14:06:24.417Z,99689.50
2022-12-23T14:08:52.446Z,99690.69
2022-12-23T14:11:20.001Z,99697.38
2022-12-23T14:13:48.264Z,99687.88
2022-12-23T14:16:18.308Z,99694.88
2022-12-23T14:18:48.571Z,99700.16
2022-12-23T14:21:23.955Z,99699.34
2022-12-23T14:23:54.336Z,99701.28
2022-12-23T14:26:22.757Z,99699.34
2022-12-23T14:28:50.062Z,99699.34
2022-12-23T14:31:24.747Z,99717.72
2022-12-23T14:33:51.950Z,99714.41
2022-12-23T14:36:22.823Z,99716.06
2022-12-23T14:38:52.974Z,99721.63
2022-12-23T14:41:23.261Z,99731.41
2022-12-23T14:43:56.050Z,99731.94
2022-12-23T14:46:26.262Z,99731.94
2022-12-23T14:49:15.953Z,99743.91
2022-12-23T14:51:40.589Z,99751.44
2022-12-23T14:54:09.799Z,99755.91
2022-12-23T14:56:40.209Z,99763.44
2022-12-23T14:59:08.529Z,99770.97
2022-12-23T15:01:36.857Z,99779.31
2022-12-23T15:04:06.941Z,99799.94
2022-12-23T15:06:34.186Z,99802.72
2022-12-23T15:09:01.868Z,99815.53
2022-12-23T15:11:30.762Z,99814.72
2022-12-23T15:13:59.724Z,99820.28
2022-12-23T15:16:29.917Z,99821.75
2022-12-23T15:18:58.380Z,99832.56
2022-12-23T15:21:28.457Z,99830.59
2022-12-23T15:23:55.321Z,99833.72
2022-12-23T15:26:24.111Z,99832.88
2022-12-23T15:28:51.239Z,99834.50
2022-12-23T15:31:21.414Z,99832.88
2022-12-23T15:34:06.130Z,99839.59
2022-12-23T15:36:37.278Z,99838.47
2022-12-23T15:39:08.847Z,99854.34
2022-12-23T15:41:41.947Z,99844.84
2022-12-23T15:44:11.725Z,99847.94
2022-12-23T15:46:40.317Z,99857.13
2022-12-23T15:49:10.170Z,99871.34
2022-12-23T15:52:06.358Z,99867.44
2022-12-23T15:54:31.963Z,99866.63
2022-12-23T15:56:59.910Z,99878.06
2022-12-23T15:59:29.450Z,99866.06
2022-12-23T16:01:56.301Z,99888.38
2022-12-23T16:04:25.990Z,99893.16
2022-12-23T16:06:53.259Z,99886.75
2022-12-23T16:09:20.172Z,99907.38
2022-12-23T16:11:48.104Z,99899.00
2022-12-23T16:14:24.947Z,99908.19
2022-12-23T16:16:52.807Z,99910.16
2022-12-23T16:19:29.484Z,99905.72
2022-12-23T16:21:56.220Z,99916.03
2022-12-23T16:24:22.869Z,99937.19
2022-12-23T16:26:49.638Z,99928.81
2022-12-23T16:29:16.860Z,99927.16
2022-12-23T16:31:51.014Z,99936.66
2022-12-23T16:34:21.304Z,99935.03
2022-12-23T16:36:48.028Z,99935.53
2022-12-23T16:39:19.268Z,99950.28
2022-12-23T16:41:45.959Z,99951.72
2022-12-23T16:44:12.735Z,99953.69
2022-12-23T16:46:43.093Z,99964.84
2022-12-23T16:49:14.336Z,99964.84
2022-12-23T16:51:41.768Z,99970.41
2022-12-23T16:54:13.351Z,99960.38
2022-12-23T16:56:41.131Z,99968.75
2022-12-23T16:59:07.838Z,99971.53
2022-12-23T17:01:36.776Z,99983.50
2022-12-23T17:04:04.363Z,99989.38
2022-12-23T17:06:31.142Z,99992.16
2022-12-23T17:08:57.961Z,99994.09
2022-12-23T17:11:26.631Z,99994.09
2022-12-23T17:13:56.632Z,99990.50
2022-12-23T17:16:28.507Z,100000.84
2022-12-23T17:18:55.292Z,99999.69
2022-12-23T17:21:23.501Z,100005.56
2022-12-23T17:23:51.259Z,100006.41
2022-12-23T17:26:18.369Z,100020.34
2022-12-23T17:28:45.086Z,100010.31
2022-12-23T17:31:15.511Z,100022.28
2022-12-23T17:33:44.834Z,100028.69
2022-12-23T17:36:12.018Z,100027.88
2022-12-23T17:38:38.761Z,100027.03
2022-12-23T17:41:05.672Z,100036.50
2022-12-23T17:43:32.469Z,100028.97
2022-12-23T17:45:59.244Z,100032.06
2022-12-23T17:48:31.464Z,100030.94
2022-12-23T17:50:58.783Z,100030.94
2022-12-23T17:53:25.463Z,100038.47
2022-12-23T17:55:52.225Z,100038.47
2022-12-23T17:58:19.756Z,100038.19
2022-12-23T18:00:46.529Z,100052.41
2022-12-23T18:03:21.375Z,100052.41
2022-12-23T18:05:48.094Z,100058.25
2022-12-23T18:08:14.743Z,100061.03
2022-12-23T18:10:41.489Z,100070.53
2022-12-23T18:13:10.253Z,100070.84
2022-12-23T18:15:38.405Z,100067.75
2022-12-23T18:18:12.289Z,100076.13
2022-12-23T18:20:39.757Z,100075.28
2022-12-23T18:23:06.489Z,100087.25
2022-12-23T18:25:33.244Z,100088.09
2022-12-23T18:27:59.914Z,100096.44
2022-12-23T18:30:26.595Z,100087.56
2022-12-23T18:32:53.288Z,100096.75
2022-12-23T18:35:29.463Z,100101.47
2022-12-23T18:37:56.571Z,100107.06
2022-12-23T18:40:26.803Z,100127.38
2022-12-23T18:42:57.655Z,100121.28
2022-12-23T18:45:33.674Z,100116.53
2022-12-23T18:48:00.457Z,100127.38
2022-12-23T18:50:28.044Z,100142.97
2022-12-23T18:52:55.069Z,100138.81
2022-12-23T18:55:21.824Z,100137.97
2022-12-23T18:57:49.275Z,100145.50
2022-12-23T19:00:17.584Z,100148.28
2022-12-23T19:02:44.811Z,100147.50
2022-12-23T19:05:16.359Z,100141.91
2022-12-23T19:07:43.238Z,100149.13
2022-12-23T19:10:10.592Z,100151.06
2022-12-23T19:12:37.242Z,100155.00
2022-12-23T19:15:04.078Z,100153.06
2022-12-23T19:17:30.764Z,100158.63
2022-12-23T19:19:57.385Z,100159.75
2022-12-23T19:22:24.656Z,100176.47
2022-12-23T19:25:04.734Z,100172.00
2022-12-23T19:27:32.828Z,100173.97
2022-12-23T19:29:59.497Z,100181.19
2022-12-23T19:32:26.423Z,100188.72
2022-12-23T19:34:53.085Z,100195.13
2022-12-23T19:37:19.820Z,100192.63
2022-12-23T19:39:46.620Z,100192.63
2022-12-23T19:42:13.319Z,100199.88
2022-12-23T19:44:39.980Z,100197.09
2022-12-23T19:47:06.594Z,100194.31
2022-12-23T19:49:34.476Z,100203.78
2022-12-23T19:52:01.534Z,100208.50
2022-12-23T19:54:28.219Z,100210.47
2022-12-23T19:56:54.888Z,100214.91
2022-12-23T19:59:22.217Z,100221.91
2022-12-23T20:01:49.315Z,100221.59
2022-12-23T20:04:16.084Z,100220.81
2022-12-23T20:06:42.894Z,100234.72
2022-12-23T20:09:11.049Z,100233.91
2022-12-23T20:11:39.334Z,100231.94
2022-12-23T20:14:06.695Z,100236.69
2022-12-23T20:16:33.783Z,100233.91
2022-12-23T20:19:00.496Z,100245.03
2022-12-23T20:21:27.245Z,100245.03
2022-12-23T20:23:53.895Z,100245.31
2022-12-23T20:26:20.915Z,100248.94
2022-12-23T20:28:47.771Z,100250.59
2022-12-23T20:31:16.416Z,100245.88
2022-12-23T20:33:43.131Z,100243.88
2022-12-23T20:36:12.240Z,100245.88
2022-12-23T20:38:41.395Z,100250.91
2022-12-23T20:41:08.771Z,100250.91
2022-12-23T20:43:35.907Z,100246.16
2022-12-23T20:46:03.036Z,100252.56
2022-12-23T20:48:34.112Z,100252.84
2022-12-23T20:51:10.584Z,100255.63
2022-12-23T20:53:37.939Z,100250.06
2022-12-23T20:56:05.769Z,100252.00
2022-12-23T20:58:42.590Z,100257.59
2022-12-23T21:01:11.391Z,100262.31
2022-12-23T21:03:38.344Z,100265.09
2022-12-23T21:06:06.099Z,100251.50
2022-12-23T21:08:33.151Z,100259.53
2022-12-23T21:11:00.043Z,100259.53
2022-12-23T21:13:26.792Z,100262.31
2022-12-23T21:15:54.024Z,100263.47
2022-12-23T21:18:20.973Z,100269.03
2022-12-23T21:20:48.000Z,100270.66
2022-12-23T21:23:14.723Z,100276.25
2022-12-23T21:25:41.580Z,100285.44
2022-12-23T21:28:08.322Z,100289.34
2022-12-23T21:30:35.488Z,100283.78
2022-12-23T21:33:03.894Z,100285.75
2022-12-23T21:35:30.758Z,100277.69
2022-12-23T21:37:57.609Z,100283.53
2022-12-23T21:40:24.664Z,100284.38
2022-12-23T21:42:51.682Z,100289.66
2022-12-23T21:45:19.710Z,100288.81
2022-12-23T21:47:46.484Z,100286.88
2022-12-23T21:50:13.187Z,100285.19
2022-12-23T21:52:40.193Z,100290.75
2022-12-23T21:55:07.521Z,100285.19
2022-12-23T21:57:34.250Z,100295.50
2022-12-23T22:00:01.101Z,100295.50
2022-12-23T22:02:28.105Z,100294.66
2022-12-23T22:04:55.072Z,100300.25
2022-12-23T22:07:21.939Z,100301.91
2022-12-23T22:09:48.758Z,100300.25
2022-12-23T22:12:15.673Z,100301.91
2022-12-23T22:14:42.629Z,100297.16
2022-12-23T22:17:09.456Z,100302.75
2022-12-23T22:19:36.216Z,100304.69
2022-12-23T22:22:03.098Z,100299.13
2022-12-23T22:24:29.957Z,100296.63
2022-12-23T22:26:56.814Z,100303.03
2022-12-23T22:29:23.522Z,100307.47
2022-12-23T22:31:53.433Z,100318.06
2022-12-23T22:34:21.170Z,100317.25
2022-12-23T22:36:48.679Z,100321.69
2022-12-23T22:39:20.702Z,100314.47
2022-12-23T22:41:48.208Z,100311.38
2022-12-23T22:44:15.551Z,100321.69
2022-12-23T22:46:42.969Z,100321.69
2022-12-23T22:49:12.198Z,100326.16
2022-12-23T22:51:39.990Z,100328.09
2022-12-23T22:54:06.879Z,100327.25
2022-12-23T22:56:33.628Z,100332.00
2022-12-23T22:59:00.543Z,100333.97
2022-12-23T23:01:29.880Z,100330.88
2022-12-23T23:03:57.799Z,100338.41
2022-12-23T23:06:25.775Z,100331.19
2022-12-23T23:08:52.521Z,100329.53
2022-12-23T23:11:19.513Z,100332.81
2022-12-23T23:13:46.417Z,100345.13
2022-12-23T23:16:13.265Z,100347.91
2022-12-23T23:18:40.489Z,100347.06
2022-12-23T23:21:08.343Z,100348.69
2022-12-23T23:23:35.703Z,100341.50
2022-12-23T23:26:02.721Z,100342.34
2022-12-23T23:28:29.539Z,100343.13
2022-12-23T23:31:17.090Z,100347.06
2022-12-23T23:33:43.539Z,100352.63
2022-12-23T23:36:10.988Z,100354.59
2022-12-23T23:38:37.748Z,100350.97
2022-12-23T23:41:04.559Z,100353.75
2022-12-23T23:43:31.388Z,100356.53
2022-12-23T23:45:58.212Z,100362.94
2022-12-23T23:48:25.008Z,100361.28
2022-12-23T23:50:51.906Z,100359.31
2022-12-23T23:53:18.738Z,100362.09
2022-12-23T23:55:45.795Z,100353.75
2022-12-23T23:58:13.166Z,100364.06
